createdAt,value
2023-01-28T00:00:13.547Z,7.85
2023-01-28T00:03:02.520Z,10.00
2023-01-28T00:05:34.753Z,11.75
2023-01-28T00:08:03.967Z,7.28
2023-01-28T00:10:33.208Z,9.15
2023-01-28T00:13:03.591Z,7.75
2023-01-28T00:15:32.888Z,9.27
2023-01-28T00:18:01.812Z,7.38
2023-01-28T00:20:31.040Z,8.15
2023-01-28T00:23:00.234Z,8.30
2023-01-28T00:25:29.408Z,7.35
2023-01-28T00:27:58.411Z,8.02
2023-01-28T00:30:28.970Z,7.88
2023-01-28T00:32:58.139Z,9.20
2023-01-28T00:35:27.319Z,7.88
2023-01-28T00:37:56.267Z,8.10
2023-01-28T00:40:25.581Z,9.38
2023-01-28T00:42:54.532Z,8.57
2023-01-28T00:45:23.724Z,6.38
2023-01-28T00:47:54.216Z,9.27
2023-01-28T00:50:23.493Z,11.63
2023-01-28T00:52:52.412Z,8.43
2023-01-28T00:55:21.911Z,14.25
2023-01-28T00:57:51.057Z,13.77
2023-01-28T01:00:21.899Z,8.75
2023-01-28T01:02:51.234Z,6.25
2023-01-28T01:05:21.889Z,7.20
2023-01-28T01:10:20.791Z,6.22
2023-01-28T01:12:50.779Z,7.30
2023-01-28T01:17:50.308Z,7.68
2023-01-28T01:20:23.187Z,5.18
2023-01-28T01:22:53.574Z,5.35
2023-01-28T01:25:23.167Z,6.05
2023-01-28T01:27:52.261Z,6.05
2023-01-28T01:30:22.571Z,6.63
2023-01-28T01:32:51.512Z,6.68
2023-01-28T01:35:22.050Z,6.10
2023-01-28T01:40:20.155Z,5.80
2023-01-28T01:42:49.125Z,6.07
2023-01-28T01:45:18.694Z,5.75
2023-01-28T01:48:00.691Z,4.95
2023-01-28T01:50:36.859Z,4.50
2023-01-28T01:53:10.259Z,5.68
2023-01-28T01:55:44.589Z,4.25
2023-01-28T01:58:16.910Z,6.72
2023-01-28T02:00:47.491Z,7.20
2023-01-28T02:03:20.606Z,6.63
2023-01-28T02:05:51.791Z,4.18
2023-01-28T02:08:23.272Z,5.38
2023-01-28T02:10:56.256Z,5.15
2023-01-28T02:13:28.731Z,7.25
2023-01-28T02:16:00.797Z,4.57
2023-01-28T02:18:29.927Z,5.75
2023-01-28T02:21:28.008Z,4.22
2023-01-28T02:24:11.329Z,4.65
2023-01-28T02:27:09.594Z,4.97
2023-01-28T02:29:51.312Z,4.97
2023-01-28T02:32:26.665Z,4.28
2023-01-28T02:35:05.098Z,6.25
2023-01-28T02:37:39.648Z,4.97
2023-01-28T02:40:14.336Z,5.85
2023-01-28T02:42:53.352Z,6.25
2023-01-28T02:45:46.849Z,6.60
2023-01-28T02:48:17.318Z,4.35
2023-01-28T02:50:57.008Z,4.67
2023-01-28T02:53:45.068Z,5.38
2023-01-28T02:56:29.456Z,5.50
2023-01-28T02:59:23.166Z,6.35
2023-01-28T03:01:58.483Z,3.70
2023-01-28T03:04:33.324Z,5.25
2023-01-28T03:07:08.665Z,6.90
2023-01-28T03:09:43.242Z,4.57
2023-01-28T03:12:37.360Z,4.53
2023-01-28T03:15:29.276Z,5.10
2023-01-28T03:18:20.776Z,5.82
2023-01-28T03:21:13.501Z,6.00
2023-01-28T03:24:12.457Z,3.97
2023-01-28T03:27:06.084Z,4.55
2023-01-28T03:29:54.029Z,5.28
2023-01-28T03:32:43.744Z,3.70
2023-01-28T03:35:35.023Z,5.03
2023-01-28T03:38:18.835Z,6.30
2023-01-28T03:40:52.525Z,5.97
2023-01-28T03:43:23.107Z,5.38
2023-01-28T03:45:52.840Z,5.05
2023-01-28T03:50:56.059Z,6.18
2023-01-28T03:53:28.278Z,6.28
2023-01-28T03:55:58.744Z,6.78
2023-01-28T03:58:46.494Z,8.27
2023-01-28T04:01:16.563Z,6.55
2023-01-28T04:03:46.251Z,7.97
2023-01-28T04:06:23.684Z,5.88
2023-01-28T04:09:16.068Z,7.43
2023-01-28T04:12:11.937Z,6.97
2023-01-28T04:14:48.067Z,7.13
2023-01-28T04:17:24.991Z,7.60
2023-01-28T04:19:54.311Z,6.68
2023-01-28T04:22:25.408Z,13.90
2023-01-28T04:24:54.779Z,17.38
2023-01-28T04:27:23.676Z,16.45
2023-01-28T04:29:53.284Z,8.27
2023-01-28T04:32:50.520Z,5.60
2023-01-28T04:35:29.965Z,7.22
2023-01-28T04:38:11.728Z,5.82
2023-01-28T04:41:04.029Z,7.35
2023-01-28T04:43:35.510Z,6.90
2023-01-28T04:46:29.177Z,4.95
2023-01-28T04:49:04.780Z,6.25
2023-01-28T04:51:54.325Z,5.65
2023-01-28T04:54:24.692Z,7.30
2023-01-28T04:56:56.478Z,11.07
2023-01-28T04:59:25.560Z,12.10
2023-01-28T05:01:54.757Z,9.73
2023-01-28T05:04:24.124Z,7.78
2023-01-28T05:09:31.410Z,9.32
2023-01-28T05:12:00.757Z,8.40
2023-01-28T05:14:32.213Z,10.45
2023-01-28T05:17:10.535Z,9.20
2023-01-28T05:19:40.290Z,7.55
2023-01-28T05:22:16.422Z,7.43
2023-01-28T05:24:51.889Z,11.38
2023-01-28T05:27:25.270Z,7.93
2023-01-28T05:29:55.510Z,9.75
2023-01-28T05:32:24.809Z,6.50
2023-01-28T05:34:53.941Z,8.60
2023-01-28T05:37:23.329Z,9.05
2023-01-28T05:39:57.169Z,8.35
2023-01-28T05:42:26.703Z,9.18
2023-01-28T05:45:04.952Z,7.00
2023-01-28T05:47:44.068Z,7.35
2023-01-28T05:50:36.774Z,8.30
2023-01-28T05:53:38.303Z,7.80
2023-01-28T05:56:10.149Z,8.10
2023-01-28T05:58:40.742Z,7.68
2023-01-28T06:01:10.041Z,7.47
2023-01-28T06:03:44.292Z,9.15
2023-01-28T06:06:14.268Z,8.57
2023-01-28T06:08:43.883Z,7.35
2023-01-28T06:11:14.860Z,9.00
2023-01-28T06:13:45.632Z,8.32
2023-01-28T06:16:44.144Z,11.27
2023-01-28T06:19:33.677Z,5.63
2023-01-28T06:22:02.759Z,8.75
2023-01-28T06:24:32.323Z,7.57
2023-01-28T06:27:02.654Z,8.77
2023-01-28T06:29:32.140Z,6.38
2023-01-28T06:32:01.058Z,7.65
2023-01-28T06:34:30.314Z,9.02
2023-01-28T06:36:59.172Z,7.57
2023-01-28T06:39:31.844Z,10.98
2023-01-28T06:42:02.504Z,8.75
2023-01-28T06:44:51.375Z,10.38
2023-01-28T06:47:20.639Z,7.57
2023-01-28T06:49:49.532Z,7.20
2023-01-28T06:52:18.708Z,10.32
2023-01-28T06:54:47.613Z,9.15
2023-01-28T06:57:18.146Z,8.20
2023-01-28T06:59:47.081Z,9.85
2023-01-28T07:02:16.287Z,7.43
2023-01-28T07:04:45.297Z,6.25
2023-01-28T07:07:14.877Z,7.70
2023-01-28T07:09:43.999Z,8.05
2023-01-28T07:12:13.145Z,7.75
2023-01-28T07:14:43.587Z,8.15
2023-01-28T07:17:12.875Z,6.50
2023-01-28T07:19:41.761Z,8.88
2023-01-28T07:22:10.994Z,9.95
2023-01-28T07:24:39.922Z,10.13
2023-01-28T07:27:12.154Z,38.35
2023-01-28T07:29:42.456Z,16.85
2023-01-28T07:32:11.746Z,7.53
2023-01-28T07:34:43.171Z,6.05
2023-01-28T07:37:12.645Z,7.90
2023-01-28T07:39:41.584Z,11.65
2023-01-28T07:42:11.262Z,7.35
2023-01-28T07:44:49.734Z,9.68
2023-01-28T07:47:19.628Z,33.55
2023-01-28T07:49:48.561Z,26.77
2023-01-28T07:52:17.866Z,12.18
2023-01-28T07:54:47.310Z,14.43
2023-01-28T07:57:23.117Z,12.13
2023-01-28T07:59:53.526Z,10.65
2023-01-28T08:02:22.739Z,9.27
2023-01-28T08:04:51.742Z,9.05
2023-01-28T08:07:21.089Z,9.07
2023-01-28T08:09:49.953Z,8.80
2023-01-28T08:12:19.220Z,8.55
2023-01-28T08:14:48.191Z,8.50
2023-01-28T08:17:18.819Z,7.32
2023-01-28T08:19:47.725Z,12.25
2023-01-28T08:22:16.948Z,7.93
2023-01-28T08:24:46.060Z,8.52
2023-01-28T08:27:15.484Z,9.50
2023-01-28T08:29:44.452Z,11.05
2023-01-28T08:32:13.709Z,7.78
2023-01-28T08:34:44.048Z,9.15
2023-01-28T08:37:13.252Z,10.05
2023-01-28T08:39:44.301Z,7.85
2023-01-28T08:42:14.884Z,12.85
2023-01-28T08:44:43.734Z,16.58
2023-01-28T08:47:12.892Z,8.57
2023-01-28T08:49:43.273Z,12.30
2023-01-28T08:52:12.484Z,12.35
2023-01-28T08:54:41.380Z,14.60
2023-01-28T08:57:11.091Z,17.15
2023-01-28T08:59:45.108Z,14.20
2023-01-28T09:02:30.279Z,10.00
2023-01-28T09:05:01.651Z,10.98
2023-01-28T09:07:30.948Z,14.07
2023-01-28T09:09:59.848Z,12.07
2023-01-28T09:12:29.107Z,13.77
2023-01-28T09:14:58.199Z,12.13
2023-01-28T09:17:27.418Z,11.77
2023-01-28T09:19:56.433Z,13.88
2023-01-28T09:22:27.086Z,11.10
2023-01-28T09:24:56.072Z,14.77
2023-01-28T09:27:25.235Z,12.05
2023-01-28T09:29:54.191Z,11.98
2023-01-28T09:32:24.777Z,9.60
2023-01-28T09:34:53.777Z,7.65
2023-01-28T09:37:23.038Z,10.95
2023-01-28T09:39:53.332Z,9.65
2023-01-28T09:42:58.243Z,10.43
2023-01-28T09:45:33.998Z,10.93
2023-01-28T09:48:07.692Z,8.32
2023-01-28T09:50:39.543Z,8.15
2023-01-28T09:53:14.771Z,6.93
2023-01-28T09:55:47.197Z,8.90
2023-01-28T09:58:18.514Z,5.95
2023-01-28T10:00:55.187Z,11.57
2023-01-28T10:03:42.227Z,5.78
2023-01-28T10:06:23.859Z,5.55
2023-01-28T10:09:31.586Z,5.85
2023-01-28T10:12:15.080Z,9.43
2023-01-28T10:14:57.159Z,9.40
2023-01-28T10:17:32.786Z,8.35
2023-01-28T10:20:07.326Z,11.88
2023-01-28T10:22:43.562Z,8.02
2023-01-28T10:25:21.018Z,10.85
2023-01-28T10:27:52.941Z,9.82
2023-01-28T10:30:25.766Z,8.32
2023-01-28T10:32:58.786Z,10.13
2023-01-28T10:35:29.450Z,10.35
2023-01-28T10:40:31.744Z,7.50
2023-01-28T10:43:02.350Z,8.82
2023-01-28T10:45:37.486Z,8.50
2023-01-28T10:48:16.288Z,8.88
2023-01-28T10:50:53.293Z,12.63
2023-01-28T10:53:34.900Z,10.90
2023-01-28T10:56:06.947Z,12.60
2023-01-28T10:58:48.637Z,10.05
2023-01-28T11:01:18.019Z,9.32
2023-01-28T11:03:56.593Z,9.48
2023-01-28T11:06:28.081Z,14.00
2023-01-28T11:08:59.181Z,11.90
2023-01-28T11:11:30.724Z,10.90
2023-01-28T11:14:01.337Z,10.60
2023-01-28T11:16:31.018Z,12.35
2023-01-28T11:19:04.975Z,15.53
2023-01-28T11:21:36.836Z,10.95
2023-01-28T11:24:15.218Z,8.35
2023-01-28T11:26:49.404Z,9.82
2023-01-28T11:29:29.130Z,16.88
2023-01-28T11:32:00.323Z,17.88
2023-01-28T11:34:31.253Z,8.90
2023-01-28T11:37:05.802Z,12.50
2023-01-28T11:39:34.780Z,7.70
2023-01-28T11:42:17.053Z,9.50
2023-01-28T11:44:49.117Z,7.80
2023-01-28T11:47:37.769Z,10.35
2023-01-28T11:50:24.082Z,11.23
2023-01-28T11:53:19.376Z,10.88
2023-01-28T11:56:02.760Z,7.55
2023-01-28T11:58:45.321Z,7.18
2023-01-28T12:01:23.845Z,7.05
2023-01-28T12:04:14.787Z,7.70
2023-01-28T12:07:00.619Z,9.95
2023-01-28T12:09:37.217Z,10.25
2023-01-28T12:12:23.324Z,9.35
2023-01-28T12:15:14.887Z,9.52
2023-01-28T12:18:00.696Z,10.77
2023-01-28T12:20:39.260Z,15.23
2023-01-28T12:23:26.467Z,11.35
2023-01-28T12:26:08.149Z,11.13
2023-01-28T12:28:53.661Z,12.63
2023-01-28T12:31:39.445Z,9.90
2023-01-28T12:34:34.874Z,10.93
2023-01-28T12:37:09.500Z,8.43
2023-01-28T12:39:54.934Z,10.27
2023-01-28T12:42:32.448Z,8.82
2023-01-28T12:45:06.525Z,10.00
2023-01-28T12:47:40.943Z,10.63
2023-01-28T12:50:18.998Z,12.55
2023-01-28T12:52:53.032Z,12.52
2023-01-28T12:55:36.072Z,11.48
2023-01-28T12:58:07.362Z,13.07
2023-01-28T13:00:41.754Z,12.30
2023-01-28T13:03:17.649Z,13.13
2023-01-28T13:05:51.843Z,14.05
2023-01-28T13:08:26.474Z,14.50
2023-01-28T13:10:56.961Z,13.55
2023-01-28T13:13:32.846Z,14.20
2023-01-28T13:16:03.857Z,17.17
2023-01-28T13:18:43.609Z,36.35
2023-01-28T13:21:19.011Z,16.60
2023-01-28T13:23:49.993Z,15.73
2023-01-28T13:26:43.391Z,14.13
2023-01-28T13:29:30.176Z,16.55
2023-01-28T13:32:00.441Z,12.82
2023-01-28T13:34:36.585Z,33.60
2023-01-28T13:37:30.715Z,24.98
2023-01-28T13:40:09.895Z,15.20
2023-01-28T13:42:38.875Z,14.02
2023-01-28T13:45:24.204Z,12.00
2023-01-28T13:47:56.309Z,12.98
2023-01-28T13:50:29.120Z,15.38
2023-01-28T13:53:04.915Z,14.27
2023-01-28T13:55:44.631Z,14.32
2023-01-28T13:58:44.809Z,19.55
2023-01-28T14:01:56.174Z,15.63
2023-01-28T14:05:03.727Z,14.65
2023-01-28T14:08:08.558Z,15.35
2023-01-28T14:10:53.311Z,15.10
2023-01-28T14:13:42.001Z,13.43
2023-01-28T14:16:23.758Z,13.43
2023-01-28T14:18:53.633Z,14.38
2023-01-28T14:21:23.636Z,15.32
2023-01-28T14:29:30.134Z,14.82
2023-01-28T14:32:00.228Z,18.48
2023-01-28T14:34:33.739Z,18.65
2023-01-28T14:37:07.481Z,16.70
2023-01-28T14:39:46.306Z,15.52
2023-01-28T14:42:21.572Z,20.23
2023-01-28T14:44:56.620Z,14.88
2023-01-28T14:47:42.524Z,17.23
2023-01-28T14:50:32.262Z,20.65
2023-01-28T14:53:22.949Z,13.83
2023-01-28T14:56:00.123Z,18.08
2023-01-28T14:58:35.951Z,17.40
2023-01-28T15:01:05.459Z,17.85
2023-01-28T15:03:35.567Z,18.63
2023-01-28T15:06:07.372Z,16.90
2023-01-28T15:08:36.410Z,14.43
2023-01-28T15:11:10.499Z,12.88
2023-01-28T15:13:44.054Z,14.40
2023-01-28T15:16:19.959Z,15.40
2023-01-28T15:18:50.897Z,17.70
2023-01-28T15:21:24.283Z,17.77
2023-01-28T15:23:56.475Z,15.45
2023-01-28T15:26:28.072Z,17.02
2023-01-28T15:28:58.788Z,15.20
2023-01-28T15:31:30.522Z,16.35
2023-01-28T15:34:01.570Z,14.10
2023-01-28T15:36:32.441Z,17.05
2023-01-28T15:39:01.435Z,15.15
2023-01-28T15:41:34.624Z,14.70
2023-01-28T15:44:05.334Z,15.73
2023-01-28T15:46:34.923Z,14.95
2023-01-28T15:49:05.392Z,18.55
2023-01-28T15:51:35.686Z,16.73
2023-01-28T15:54:08.970Z,14.77
2023-01-28T15:56:38.630Z,15.98
2023-01-28T15:59:19.167Z,13.98
2023-01-28T16:01:48.578Z,16.65
2023-01-28T16:04:28.579Z,14.73
2023-01-28T16:09:31.966Z,14.32
2023-01-28T16:12:05.824Z,15.80
2023-01-28T16:14:47.533Z,16.25
2023-01-28T16:17:20.810Z,13.77
2023-01-28T16:19:53.210Z,12.32
2023-01-28T16:22:28.448Z,14.57
2023-01-28T16:24:57.445Z,15.88
2023-01-28T16:27:28.132Z,15.85
2023-01-28T16:29:58.761Z,14.75
2023-01-28T16:32:32.030Z,12.95
2023-01-28T16:35:02.265Z,17.95
2023-01-28T16:37:32.038Z,18.65
2023-01-28T16:40:02.341Z,16.30
2023-01-28T16:42:34.096Z,13.45
2023-01-28T16:45:04.800Z,15.85
2023-01-28T16:47:35.640Z,18.23
2023-01-28T16:50:04.689Z,17.85
2023-01-28T16:52:34.227Z,17.33
2023-01-28T16:55:04.403Z,20.15
2023-01-28T16:57:37.457Z,19.90
2023-01-28T17:00:09.793Z,19.35
2023-01-28T17:02:39.166Z,27.00
2023-01-28T17:05:08.749Z,30.25
2023-01-28T17:07:38.169Z,32.42
2023-01-28T17:10:08.824Z,37.03
2023-01-28T17:12:41.668Z,33.40
2023-01-28T17:15:14.692Z,29.17
2023-01-28T17:17:44.527Z,19.27
2023-01-28T17:20:13.894Z,19.77
2023-01-28T17:22:43.249Z,19.23
2023-01-28T17:25:12.198Z,21.17
2023-01-28T17:27:41.861Z,16.30
2023-01-28T17:30:13.779Z,20.67
2023-01-28T17:32:43.186Z,19.17
2023-01-28T17:35:12.361Z,23.90
2023-01-28T17:37:42.059Z,19.83
2023-01-28T17:40:13.682Z,15.88
2023-01-28T17:42:44.223Z,19.77
2023-01-28T17:45:14.890Z,20.85
2023-01-28T17:47:44.940Z,23.27
2023-01-28T17:50:13.972Z,23.55
2023-01-28T17:52:43.260Z,29.93
2023-01-28T17:55:12.646Z,21.63
2023-01-28T17:57:44.801Z,23.33
2023-01-28T18:00:19.245Z,29.23
2023-01-28T18:02:52.561Z,26.08
2023-01-28T18:05:22.388Z,29.42
2023-01-28T18:07:52.169Z,26.35
2023-01-28T18:10:21.373Z,23.90
2023-01-28T18:12:50.822Z,23.17
2023-01-28T18:15:21.351Z,24.40
2023-01-28T18:17:51.168Z,23.25
2023-01-28T18:20:20.583Z,22.17
2023-01-28T18:22:50.119Z,21.13
2023-01-28T18:25:20.288Z,21.55
2023-01-28T18:27:49.863Z,26.50
2023-01-28T18:30:20.909Z,21.17
2023-01-28T18:32:50.880Z,19.52
2023-01-28T18:35:20.076Z,22.05
2023-01-28T18:37:49.611Z,18.08
2023-01-28T18:40:18.912Z,21.73
2023-01-28T18:42:48.307Z,21.83
2023-01-28T18:45:17.840Z,22.23
2023-01-28T18:47:49.172Z,21.48
2023-01-28T18:50:19.917Z,19.75
2023-01-28T18:52:49.152Z,27.55
2023-01-28T18:55:19.079Z,25.45
2023-01-28T19:00:18.070Z,22.75
2023-01-28T19:02:49.064Z,17.48
2023-01-28T19:05:18.869Z,21.08
2023-01-28T19:07:48.080Z,18.90
2023-01-28T19:10:19.648Z,22.05
2023-01-28T19:12:49.212Z,18.83
2023-01-28T19:15:18.410Z,21.45
2023-01-28T19:17:49.368Z,19.08
2023-01-28T19:20:19.808Z,21.55
2023-01-28T19:22:50.506Z,19.35
2023-01-28T19:25:19.778Z,22.48
2023-01-28T19:27:48.927Z,21.65
2023-01-28T19:30:18.486Z,22.17
2023-01-28T19:32:50.358Z,20.83
2023-01-28T19:35:19.373Z,21.38
2023-01-28T19:37:48.673Z,21.25
2023-01-28T19:40:18.461Z,20.70
2023-01-28T19:42:47.983Z,20.98
2023-01-28T19:45:17.305Z,22.38
2023-01-28T19:47:48.260Z,23.85
2023-01-28T19:52:46.899Z,18.92
2023-01-28T19:55:16.203Z,21.55
2023-01-28T19:57:45.814Z,21.30
2023-01-28T20:00:15.439Z,20.05
2023-01-28T20:02:44.957Z,22.35
2023-01-28T20:05:15.789Z,19.40
2023-01-28T20:07:45.428Z,20.70
2023-01-28T20:10:14.341Z,20.55
2023-01-28T20:12:44.121Z,21.45
2023-01-28T20:15:13.856Z,21.80
2023-01-28T20:20:14.642Z,18.58
2023-01-28T20:22:44.118Z,21.80
2023-01-28T20:25:13.157Z,21.30
2023-01-28T20:27:42.404Z,24.63
2023-01-28T20:30:12.862Z,38.78
2023-01-28T20:32:42.198Z,36.55
2023-01-28T20:35:11.649Z,38.45
2023-01-28T20:37:42.601Z,30.13
2023-01-28T20:40:13.025Z,26.58
2023-01-28T20:42:42.291Z,32.00
2023-01-28T20:45:11.554Z,27.77
2023-01-28T20:47:41.121Z,30.13
2023-01-28T20:50:11.122Z,18.92
2023-01-28T20:55:13.243Z,21.02
2023-01-28T20:57:44.710Z,21.27
2023-01-28T21:00:15.163Z,19.65
2023-01-28T21:02:46.037Z,21.05
2023-01-28T21:05:15.427Z,16.50
2023-01-28T21:07:46.536Z,20.48
2023-01-28T21:10:15.638Z,16.67
2023-01-28T21:12:45.139Z,17.00
2023-01-28T21:15:14.462Z,18.85
2023-01-28T21:17:43.860Z,22.88
2023-01-28T21:20:14.280Z,17.30
2023-01-28T21:22:45.329Z,22.30
2023-01-28T21:25:16.000Z,15.55
2023-01-28T21:27:45.447Z,18.17
2023-01-28T21:30:15.387Z,17.52
2023-01-28T21:32:45.134Z,14.13
2023-01-28T21:35:14.035Z,16.90
2023-01-28T21:37:48.047Z,15.52
2023-01-28T21:40:17.630Z,13.02
2023-01-28T21:42:47.377Z,10.80
2023-01-28T21:45:16.407Z,10.10
2023-01-28T21:47:45.563Z,8.13
2023-01-28T21:50:14.784Z,7.82
2023-01-28T21:52:44.508Z,6.03
2023-01-28T21:55:14.799Z,9.18
2023-01-28T21:57:44.432Z,6.03
2023-01-28T22:00:13.203Z,4.65
2023-01-28T22:02:42.618Z,6.65
2023-01-28T22:05:11.680Z,5.03
2023-01-28T22:07:40.861Z,5.93
2023-01-28T22:10:11.184Z,6.45
2023-01-28T22:12:41.808Z,5.13
2023-01-28T22:17:40.276Z,5.03
2023-01-28T22:20:11.373Z,5.50
2023-01-28T22:22:40.611Z,5.45
2023-01-28T22:25:10.534Z,7.13
2023-01-28T22:27:41.145Z,5.78
2023-01-28T22:32:39.763Z,3.60
2023-01-28T22:35:09.157Z,6.30
2023-01-28T22:37:39.575Z,6.40
2023-01-28T22:40:09.962Z,5.28
2023-01-28T22:42:41.116Z,6.30
2023-01-28T22:45:11.690Z,6.63
2023-01-28T22:47:43.814Z,5.57
2023-01-28T22:50:14.979Z,5.95
2023-01-28T22:52:44.447Z,5.95
2023-01-28T22:55:13.337Z,4.97
2023-01-28T22:57:44.134Z,5.65
2023-01-28T23:00:16.193Z,6.47
2023-01-28T23:02:45.924Z,6.10
2023-01-28T23:05:14.908Z,4.38
2023-01-28T23:07:44.154Z,4.70
2023-01-28T23:10:14.301Z,5.65
2023-01-28T23:12:45.995Z,6.55
2023-01-28T23:15:32.705Z,5.78
2023-01-28T23:18:19.432Z,4.45
2023-01-28T23:21:06.105Z,5.00
2023-01-28T23:23:53.135Z,5.65
2023-01-28T23:26:22.156Z,5.95
2023-01-28T23:28:53.923Z,9.88
2023-01-28T23:31:22.958Z,6.05
2023-01-28T23:33:52.286Z,5.05
2023-01-28T23:36:21.246Z,5.47
2023-01-28T23:38:50.462Z,6.57
2023-01-28T23:41:19.396Z,5.35
2023-01-28T23:43:48.711Z,5.53
2023-01-28T23:46:22.703Z,7.05
2023-01-28T23:48:56.725Z,7.28
2023-01-28T23:51:25.965Z,8.85
2023-01-28T23:53:55.458Z,6.53
2023-01-28T23:56:24.383Z,7.82
2023-01-28T23:58:53.645Z,8.95
